createdAt,value
2023-02-28T00:01:11.040Z,102710.75
2023-02-28T00:03:38.722Z,102713.84
2023-02-28T00:06:08.171Z,102716.50
2023-02-28T00:08:35.586Z,102713.53
2023-02-28T00:11:04.656Z,102720.03
2023-02-28T00:13:35.466Z,102718.38
2023-02-28T00:16:05.356Z,102726.03
2023-02-28T00:18:33.039Z,102726.25
2023-02-28T00:21:00.924Z,102707.97
2023-02-28T00:23:28.898Z,102704.69
2023-02-28T00:25:56.611Z,102708.53
2023-02-28T00:28:24.514Z,102710.47
2023-02-28T00:30:53.600Z,102706.56
2023-02-28T00:33:21.339Z,102720.44
2023-02-28T00:35:49.739Z,102714.66
2023-02-28T00:38:17.602Z,102705.63
2023-02-28T00:40:45.109Z,102715.69
2023-02-28T00:43:12.545Z,102724.38
2023-02-28T00:45:39.991Z,102711.97
2023-02-28T00:48:08.885Z,102714.16
2023-02-28T00:50:36.326Z,102717.63
2023-02-28T00:53:03.828Z,102719.84
2023-02-28T00:55:31.257Z,102725.72
2023-02-28T00:57:58.736Z,102714.72
2023-02-28T01:00:26.182Z,102716.09
2023-02-28T01:02:53.645Z,102723.00
2023-02-28T01:05:22.421Z,102722.31
2023-02-28T01:07:49.892Z,102708.91
2023-02-28T01:10:17.989Z,102716.06
2023-02-28T01:12:45.472Z,102708.00
2023-02-28T01:15:15.469Z,102713.75
2023-02-28T01:17:42.972Z,102714.66
2023-02-28T01:20:11.914Z,102719.31
2023-02-28T01:22:41.016Z,102712.16
2023-02-28T01:25:09.570Z,102710.19
2023-02-28T01:27:37.072Z,102701.19
2023-02-28T01:30:04.979Z,102699.78
2023-02-28T01:32:32.420Z,102699.66
2023-02-28T01:34:59.856Z,102698.69
2023-02-28T01:37:27.349Z,102699.28
2023-02-28T01:39:56.141Z,102693.59
2023-02-28T01:42:23.575Z,102702.13
2023-02-28T01:45:05.360Z,102698.69
2023-02-28T01:47:44.397Z,102698.41
2023-02-28T01:50:22.513Z,102692.03
2023-02-28T01:52:50.506Z,102701.75
2023-02-28T01:55:20.580Z,102704.41
2023-02-28T01:57:52.743Z,102691.97
2023-02-28T02:00:24.186Z,102689.84
2023-02-28T02:02:57.345Z,102698.69
2023-02-28T02:05:26.733Z,102690.44
2023-02-28T02:07:57.751Z,102697.31
2023-02-28T02:10:31.305Z,102698.25
2023-02-28T02:13:20.772Z,102695.22
2023-02-28T02:15:58.488Z,102697.47
2023-02-28T02:18:32.805Z,102695.25
2023-02-28T02:21:31.175Z,102696.56
2023-02-28T02:24:29.775Z,102687.53
2023-02-28T02:27:05.736Z,102692.56
2023-02-28T02:30:12.049Z,102698.53
2023-02-28T02:33:05.538Z,102687.97
2023-02-28T02:35:40.940Z,102691.44
2023-02-28T02:38:16.622Z,102698.41
2023-02-28T02:40:49.692Z,102691.09
2023-02-28T02:43:22.102Z,102694.13
2023-02-28T02:45:54.189Z,102698.44
2023-02-28T02:48:26.460Z,102699.44
2023-02-28T02:50:58.571Z,102696.81
2023-02-28T02:53:31.454Z,102697.56
2023-02-28T02:56:02.305Z,102694.47
2023-02-28T02:58:35.771Z,102700.13
2023-02-28T03:01:06.014Z,102698.84
2023-02-28T03:03:35.878Z,102700.41
2023-02-28T03:06:06.866Z,102697.28
2023-02-28T03:08:39.232Z,102701.63
2023-02-28T03:11:10.036Z,102700.91
2023-02-28T03:13:56.778Z,102702.22
2023-02-28T03:16:42.826Z,102707.63
2023-02-28T03:19:34.306Z,102706.69
2023-02-28T03:22:15.993Z,102708.50
2023-02-28T03:24:51.569Z,102710.38
2023-02-28T03:27:25.641Z,102716.13
2023-02-28T03:29:59.240Z,102715.47
2023-02-28T03:32:31.834Z,102723.06
2023-02-28T03:35:08.467Z,102722.16
2023-02-28T03:37:41.445Z,102717.13
2023-02-28T03:40:13.677Z,102716.91
2023-02-28T03:42:44.936Z,102720.69
2023-02-28T03:45:16.167Z,102719.56
2023-02-28T03:47:49.268Z,102720.66
2023-02-28T03:50:20.788Z,102723.78
2023-02-28T03:52:54.968Z,102723.03
2023-02-28T03:55:23.094Z,102718.50
2023-02-28T03:58:00.201Z,102726.69
2023-02-28T04:00:30.902Z,102725.13
2023-02-28T04:02:58.531Z,102720.72
2023-02-28T04:05:26.005Z,102721.28
2023-02-28T04:07:55.049Z,102725.34
2023-02-28T04:10:22.658Z,102726.25
2023-02-28T04:12:50.126Z,102728.38
2023-02-28T04:15:17.556Z,102723.94
2023-02-28T04:17:45.067Z,102727.34
2023-02-28T04:20:13.244Z,102724.28
2023-02-28T04:22:40.710Z,102726.28
2023-02-28T04:25:10.347Z,102723.16
2023-02-28T04:27:37.891Z,102729.91
2023-02-28T04:30:06.112Z,102732.91
2023-02-28T04:32:33.609Z,102732.25
2023-02-28T04:35:01.149Z,102725.59
2023-02-28T04:37:29.870Z,102731.81
2023-02-28T04:39:57.348Z,102731.34
2023-02-28T04:42:26.114Z,102734.56
2023-02-28T04:44:53.553Z,102735.13
2023-02-28T04:47:21.020Z,102733.34
2023-02-28T04:49:48.508Z,102734.47
2023-02-28T04:52:15.945Z,102738.19
2023-02-28T04:54:43.388Z,102730.81
2023-02-28T04:57:10.787Z,102730.47
2023-02-28T04:59:39.609Z,102737.22
2023-02-28T05:02:07.887Z,102740.78
2023-02-28T05:04:36.492Z,102744.63
2023-02-28T05:07:04.998Z,102744.97
2023-02-28T05:09:33.927Z,102746.06
2023-02-28T05:12:01.394Z,102748.84
2023-02-28T05:14:28.836Z,102750.75
2023-02-28T05:16:57.657Z,102744.50
2023-02-28T05:19:25.092Z,102749.03
2023-02-28T05:21:54.155Z,102750.34
2023-02-28T05:24:23.821Z,102756.75
2023-02-28T05:26:53.558Z,102754.59
2023-02-28T05:29:21.222Z,102755.03
2023-02-28T05:31:49.375Z,102767.59
2023-02-28T05:34:18.438Z,102757.91
2023-02-28T05:36:46.067Z,102758.25
2023-02-28T05:39:14.440Z,102756.59
2023-02-28T05:41:42.744Z,102760.44
2023-02-28T05:44:10.668Z,102760.66
2023-02-28T05:46:38.115Z,102767.63
2023-02-28T05:49:06.104Z,102764.31
2023-02-28T05:51:35.320Z,102768.13
2023-02-28T05:54:03.232Z,102773.66
2023-02-28T05:56:31.157Z,102771.56
2023-02-28T05:58:58.655Z,102770.75
2023-02-28T06:01:34.095Z,102775.19
2023-02-28T06:04:02.140Z,102781.69
2023-02-28T06:06:31.012Z,102771.34
2023-02-28T06:08:59.781Z,102773.22
2023-02-28T06:11:29.058Z,102776.56
2023-02-28T06:13:57.573Z,102773.88
2023-02-28T06:16:25.626Z,102778.13
2023-02-28T06:18:53.574Z,102782.19
2023-02-28T06:21:21.085Z,102789.53
2023-02-28T06:23:48.580Z,102789.09
2023-02-28T06:26:17.624Z,102782.94
2023-02-28T06:28:45.051Z,102783.59
2023-02-28T06:31:14.825Z,102789.34
2023-02-28T06:33:43.428Z,102794.03
2023-02-28T06:36:13.464Z,102799.06
2023-02-28T06:38:41.959Z,102799.44
2023-02-28T06:41:10.293Z,102803.06
2023-02-28T06:43:42.037Z,102805.25
2023-02-28T06:46:13.298Z,102809.69
2023-02-28T06:48:41.072Z,102809.38
2023-02-28T06:51:10.691Z,102813.31
2023-02-28T06:53:39.529Z,102808.31
2023-02-28T06:56:08.353Z,102813.09
2023-02-28T06:58:36.106Z,102816.75
2023-02-28T07:01:05.814Z,102813.88
2023-02-28T07:03:34.541Z,102818.06
2023-02-28T07:06:02.745Z,102820.81
2023-02-28T07:08:30.586Z,102815.06
2023-02-28T07:10:58.303Z,102823.75
2023-02-28T07:13:26.237Z,102815.53
2023-02-28T07:15:57.939Z,102820.84
2023-02-28T07:18:26.995Z,102816.22
2023-02-28T07:20:55.088Z,102816.75
2023-02-28T07:23:23.409Z,102821.31
2023-02-28T07:25:52.935Z,102818.19
2023-02-28T07:28:20.485Z,102817.53
2023-02-28T07:30:49.075Z,102824.41
2023-02-28T07:33:16.667Z,102830.38
2023-02-28T07:35:45.830Z,102823.06
2023-02-28T07:38:14.636Z,102823.84
2023-02-28T07:40:42.228Z,102822.81
2023-02-28T07:43:09.801Z,102827.69
2023-02-28T07:45:37.337Z,102828.16
2023-02-28T07:48:05.057Z,102823.47
2023-02-28T07:50:32.616Z,102830.56
2023-02-28T07:53:01.450Z,102835.50
2023-02-28T07:55:29.100Z,102820.25
2023-02-28T07:57:56.605Z,102828.94
2023-02-28T08:00:25.160Z,102824.25
2023-02-28T08:02:52.916Z,102833.59
2023-02-28T08:05:22.207Z,102834.38
2023-02-28T08:07:51.420Z,102828.34
2023-02-28T08:10:20.390Z,102832.69
2023-02-28T08:12:47.835Z,102825.19
2023-02-28T08:15:15.431Z,102818.50
2023-02-28T08:17:42.981Z,102820.09
2023-02-28T08:20:12.151Z,102821.97
2023-02-28T08:22:39.582Z,102819.25
2023-02-28T08:25:08.509Z,102816.25
2023-02-28T08:27:37.557Z,102819.41
2023-02-28T08:30:05.774Z,102820.88
2023-02-28T08:32:34.305Z,102809.78
2023-02-28T08:35:02.856Z,102825.81
2023-02-28T08:37:30.347Z,102824.25
2023-02-28T08:39:57.878Z,102824.66
2023-02-28T08:42:25.812Z,102818.59
2023-02-28T08:44:54.629Z,102827.72
2023-02-28T08:47:22.056Z,102825.56
2023-02-28T08:49:49.524Z,102824.78
2023-02-28T08:52:17.051Z,102820.13
2023-02-28T08:54:44.474Z,102822.00
2023-02-28T08:57:11.983Z,102834.03
2023-02-28T08:59:39.574Z,102832.91
2023-02-28T09:02:08.355Z,102818.81
2023-02-28T09:04:36.016Z,102824.63
2023-02-28T09:07:03.607Z,102824.91
2023-02-28T09:09:31.064Z,102825.19
2023-02-28T09:11:58.796Z,102824.94
2023-02-28T09:14:26.456Z,102832.19
2023-02-28T09:16:53.980Z,102820.06
2023-02-28T09:19:23.259Z,102830.22
2023-02-28T09:21:50.926Z,102826.94
2023-02-28T09:24:19.110Z,102832.03
2023-02-28T09:26:56.739Z,102830.22
2023-02-28T09:29:31.790Z,102821.34
2023-02-28T09:31:59.837Z,102816.31
2023-02-28T09:34:31.788Z,102817.09
2023-02-28T09:36:59.537Z,102826.06
2023-02-28T09:39:27.681Z,102825.13
2023-02-28T09:41:56.953Z,102817.09
2023-02-28T09:44:30.957Z,102822.00
2023-02-28T09:47:02.625Z,102823.22
2023-02-28T09:49:38.556Z,102822.00
2023-02-28T09:52:10.075Z,102822.19
2023-02-28T09:54:39.741Z,102823.75
2023-02-28T09:57:11.245Z,102830.34
2023-02-28T09:59:51.683Z,102845.34
2023-02-28T10:02:43.356Z,102833.50
2023-02-28T10:05:15.575Z,102829.81
2023-02-28T10:08:02.758Z,102824.88
2023-02-28T10:10:34.860Z,102825.34
2023-02-28T10:13:06.801Z,102827.50
2023-02-28T10:15:37.281Z,102839.88
2023-02-28T10:18:09.800Z,102835.63
2023-02-28T10:20:42.091Z,102831.19
2023-02-28T10:23:16.679Z,102830.78
2023-02-28T10:25:49.197Z,102837.56
2023-02-28T10:28:18.872Z,102847.66
2023-02-28T10:30:49.361Z,102836.72
2023-02-28T10:33:23.970Z,102829.75
2023-02-28T10:35:53.352Z,102835.81
2023-02-28T10:38:23.450Z,102840.44
2023-02-28T10:40:51.014Z,102833.44
2023-02-28T10:43:25.157Z,102835.94
2023-02-28T10:46:00.666Z,102843.38
2023-02-28T10:48:33.772Z,102838.41
2023-02-28T10:51:05.037Z,102827.44
2023-02-28T10:53:44.867Z,102828.44
2023-02-28T10:56:24.362Z,102828.44
2023-02-28T10:58:55.693Z,102821.13
2023-02-28T11:01:26.105Z,102814.78
2023-02-28T11:03:54.621Z,102810.72
2023-02-28T11:06:25.227Z,102813.06
2023-02-28T11:08:55.600Z,102800.47
2023-02-28T11:11:26.226Z,102812.13
2023-02-28T11:13:55.970Z,102806.16
2023-02-28T11:16:33.618Z,102801.97
2023-02-28T11:19:01.514Z,102796.44
2023-02-28T11:21:34.399Z,102797.88
2023-02-28T11:24:08.650Z,102790.03
2023-02-28T11:26:41.745Z,102773.81
2023-02-28T11:29:20.042Z,102771.97
2023-02-28T11:32:03.824Z,102793.72
2023-02-28T11:34:31.764Z,102786.72
2023-02-28T11:37:05.814Z,102782.09
2023-02-28T11:39:34.450Z,102790.53
2023-02-28T11:42:16.344Z,102781.53
2023-02-28T11:45:04.384Z,102784.44
2023-02-28T11:47:40.462Z,102772.59
2023-02-28T11:50:33.359Z,102782.47
2023-02-28T11:53:06.891Z,102782.09
2023-02-28T11:55:38.527Z,102786.78
2023-02-28T11:58:28.758Z,102789.84
2023-02-28T12:01:09.000Z,102788.34
2023-02-28T12:03:46.260Z,102782.59
2023-02-28T12:06:23.143Z,102778.66
2023-02-28T12:09:02.953Z,102777.25
2023-02-28T12:11:42.638Z,102780.25
2023-02-28T12:14:30.082Z,102785.44
2023-02-28T12:17:08.466Z,102778.69
2023-02-28T12:19:48.560Z,102780.22
2023-02-28T12:22:30.601Z,102765.50
2023-02-28T12:25:28.200Z,102768.72
2023-02-28T12:27:56.268Z,102760.81
2023-02-28T12:30:27.070Z,102768.66
2023-02-28T12:32:58.611Z,102765.06
2023-02-28T12:35:30.179Z,102761.41
2023-02-28T12:38:01.709Z,102744.78
2023-02-28T12:40:41.636Z,102737.16
2023-02-28T12:43:11.441Z,102737.03
2023-02-28T12:45:43.922Z,102744.22
2023-02-28T12:48:17.024Z,102724.00
2023-02-28T12:50:45.110Z,102729.06
2023-02-28T12:53:20.510Z,102721.03
2023-02-28T12:55:54.973Z,102729.94
2023-02-28T12:58:29.718Z,102719.16
2023-02-28T13:01:17.816Z,102707.88
2023-02-28T13:04:07.643Z,102705.97
2023-02-28T13:06:47.439Z,102707.34
2023-02-28T13:09:16.597Z,102692.50
2023-02-28T13:11:49.841Z,102677.16
2023-02-28T13:14:28.899Z,102678.56
2023-02-28T13:17:03.910Z,102678.91
2023-02-28T13:19:34.224Z,102684.94
2023-02-28T13:22:02.571Z,102683.09
2023-02-28T13:24:46.733Z,102681.81
2023-02-28T13:27:34.391Z,102695.66
2023-02-28T13:30:03.627Z,102709.63
2023-02-28T13:32:40.590Z,102701.84
2023-02-28T13:35:17.070Z,102696.34
2023-02-28T13:37:45.686Z,102699.91
2023-02-28T13:40:31.689Z,102698.13
2023-02-28T13:43:00.548Z,102697.72
2023-02-28T13:45:29.208Z,102692.00
2023-02-28T13:48:01.534Z,102694.00
2023-02-28T13:50:34.748Z,102673.44
2023-02-28T13:53:36.700Z,102668.31
2023-02-28T13:56:25.302Z,102662.03
2023-02-28T13:58:57.562Z,102669.63
2023-02-28T14:01:40.033Z,102656.59
2023-02-28T14:04:40.007Z,102658.34
2023-02-28T14:07:09.202Z,102649.50
2023-02-28T14:09:40.513Z,102658.97
2023-02-28T14:12:45.982Z,102658.81
2023-02-28T14:15:40.151Z,102658.94
2023-02-28T14:18:19.324Z,102667.66
2023-02-28T14:20:48.997Z,102657.19
2023-02-28T14:23:32.438Z,102664.59
2023-02-28T14:26:07.904Z,102678.03
2023-02-28T14:28:51.874Z,102671.19
2023-02-28T14:31:27.495Z,102671.69
2023-02-28T14:34:19.052Z,102668.06
2023-02-28T14:36:47.860Z,102652.00
2023-02-28T14:39:16.891Z,102654.97
2023-02-28T14:41:46.197Z,102664.81
2023-02-28T14:44:19.692Z,102653.91
2023-02-28T14:46:51.353Z,102669.97
2023-02-28T14:49:21.697Z,102660.31
2023-02-28T14:51:51.320Z,102658.06
2023-02-28T14:54:27.025Z,102649.16
2023-02-28T14:56:54.590Z,102645.94
2023-02-28T14:59:27.944Z,102655.44
2023-02-28T15:02:24.624Z,102659.41
2023-02-28T15:04:57.747Z,102655.31
2023-02-28T15:07:29.511Z,102646.19
2023-02-28T15:10:10.163Z,102641.53
2023-02-28T15:12:38.849Z,102646.22
2023-02-28T15:15:08.781Z,102640.06
2023-02-28T15:17:37.931Z,102651.09
2023-02-28T15:20:06.485Z,102650.84
2023-02-28T15:22:38.896Z,102650.94
2023-02-28T15:25:09.173Z,102634.78
2023-02-28T15:27:44.602Z,102637.63
2023-02-28T15:30:18.618Z,102634.19
2023-02-28T15:33:04.536Z,102646.22
2023-02-28T15:35:34.480Z,102645.91
2023-02-28T15:38:04.023Z,102638.31
2023-02-28T15:40:33.407Z,102638.56
2023-02-28T15:43:06.206Z,102646.63
2023-02-28T15:45:41.898Z,102643.91
2023-02-28T15:48:18.857Z,102639.28
2023-02-28T15:50:48.826Z,102636.16
2023-02-28T15:53:20.420Z,102628.66
2023-02-28T15:55:55.417Z,102632.94
2023-02-28T15:58:24.421Z,102633.78
2023-02-28T16:01:03.642Z,102631.47
2023-02-28T16:03:41.649Z,102649.53
2023-02-28T16:06:28.081Z,102639.47
2023-02-28T16:08:55.551Z,102652.81
2023-02-28T16:11:23.885Z,102650.25
2023-02-28T16:13:53.227Z,102653.13
2023-02-28T16:16:23.302Z,102644.81
2023-02-28T16:18:52.567Z,102638.84
2023-02-28T16:21:20.071Z,102638.94
2023-02-28T16:23:47.569Z,102631.06
2023-02-28T16:26:21.539Z,102642.06
2023-02-28T16:28:49.101Z,102644.47
2023-02-28T16:31:17.555Z,102646.47
2023-02-28T16:33:45.983Z,102647.22
2023-02-28T16:36:21.097Z,102642.97
2023-02-28T16:38:48.966Z,102649.91
2023-02-28T16:41:20.677Z,102650.84
2023-02-28T16:43:50.350Z,102646.44
2023-02-28T16:46:18.799Z,102647.00
2023-02-28T16:48:47.928Z,102643.25
2023-02-28T16:51:16.952Z,102647.91
2023-02-28T16:53:47.109Z,102644.97
2023-02-28T16:56:20.636Z,102654.34
2023-02-28T16:58:49.057Z,102646.59
2023-02-28T17:01:17.290Z,102646.44
2023-02-28T17:03:45.011Z,102652.13
2023-02-28T17:06:21.127Z,102654.50
2023-02-28T17:08:49.990Z,102647.19
2023-02-28T17:11:17.436Z,102646.44
2023-02-28T17:13:44.912Z,102648.41
2023-02-28T17:16:28.017Z,102647.50
2023-02-28T17:18:57.480Z,102650.59
2023-02-28T17:21:25.142Z,102655.88
2023-02-28T17:23:53.909Z,102653.56
2023-02-28T17:26:23.242Z,102655.41
2023-02-28T17:28:51.865Z,102656.75
2023-02-28T17:31:19.879Z,102661.16
2023-02-28T17:33:47.318Z,102652.78
2023-02-28T17:36:16.493Z,102660.25
2023-02-28T17:38:44.294Z,102661.63
2023-02-28T17:41:13.596Z,102657.38
2023-02-28T17:43:41.847Z,102661.56
2023-02-28T17:46:19.201Z,102655.69
2023-02-28T17:48:46.755Z,102654.44
2023-02-28T17:51:15.454Z,102661.69
2023-02-28T17:53:43.247Z,102659.31
2023-02-28T17:56:16.107Z,102661.47
2023-02-28T17:58:43.898Z,102669.13
2023-02-28T18:01:12.833Z,102661.00
2023-02-28T18:03:40.853Z,102660.66
2023-02-28T18:06:11.921Z,102657.97
2023-02-28T18:08:39.364Z,102660.91
2023-02-28T18:11:06.898Z,102657.88
2023-02-28T18:13:35.657Z,102659.38
2023-02-28T18:16:03.108Z,102662.50
2023-02-28T18:18:30.607Z,102658.81
2023-02-28T18:20:58.011Z,102669.50
2023-02-28T18:23:25.462Z,102667.53
2023-02-28T18:25:53.495Z,102667.69
2023-02-28T18:28:20.962Z,102676.13
2023-02-28T18:30:49.774Z,102671.47
2023-02-28T18:33:17.635Z,102684.41
2023-02-28T18:35:45.366Z,102688.22
2023-02-28T18:38:15.867Z,102685.44
2023-02-28T18:40:44.527Z,102683.16
2023-02-28T18:43:11.940Z,102690.72
2023-02-28T18:45:40.341Z,102694.16
2023-02-28T18:48:09.161Z,102699.53
2023-02-28T18:50:38.600Z,102696.53
2023-02-28T18:53:06.041Z,102704.31
2023-02-28T18:55:34.125Z,102710.31
2023-02-28T18:58:01.756Z,102710.28
2023-02-28T19:00:29.241Z,102694.50
2023-02-28T19:02:56.706Z,102692.16
2023-02-28T19:05:25.585Z,102693.03
2023-02-28T19:07:53.026Z,102698.06
2023-02-28T19:10:20.540Z,102693.56
2023-02-28T19:12:48.025Z,102692.00
2023-02-28T19:15:15.432Z,102680.50
2023-02-28T19:17:42.974Z,102691.81
2023-02-28T19:20:11.791Z,102686.88
2023-02-28T19:22:41.088Z,102676.38
2023-02-28T19:25:09.505Z,102682.56
2023-02-28T19:27:37.259Z,102690.06
2023-02-28T19:30:06.526Z,102699.19
2023-02-28T19:32:34.984Z,102696.16
2023-02-28T19:35:03.178Z,102695.75
2023-02-28T19:37:30.871Z,102695.69
2023-02-28T19:39:59.658Z,102704.19
2023-02-28T19:42:29.862Z,102700.47
2023-02-28T19:44:57.276Z,102703.59
2023-02-28T19:47:24.714Z,102699.22
2023-02-28T19:49:54.706Z,102696.16
2023-02-28T19:52:22.558Z,102695.97
2023-02-28T19:54:50.249Z,102694.28
2023-02-28T19:57:19.005Z,102699.09
2023-02-28T19:59:46.650Z,102695.53
2023-02-28T20:02:15.281Z,102694.16
2023-02-28T20:04:43.276Z,102692.59
2023-02-28T20:07:10.746Z,102705.00
2023-02-28T20:09:38.259Z,102702.59
2023-02-28T20:12:09.305Z,102702.81
2023-02-28T20:14:43.333Z,102698.84
2023-02-28T20:17:11.068Z,102707.19
2023-02-28T20:19:38.927Z,102703.50
2023-02-28T20:22:08.024Z,102702.50
2023-02-28T20:24:35.481Z,102706.53
2023-02-28T20:27:03.054Z,102703.38
2023-02-28T20:29:30.781Z,102707.19
2023-02-28T20:31:59.619Z,102703.44
2023-02-28T20:34:27.262Z,102707.50
2023-02-28T20:36:56.463Z,102709.22
2023-02-28T20:39:24.052Z,102697.66
2023-02-28T20:41:51.579Z,102688.75
2023-02-28T20:44:19.376Z,102687.75
2023-02-28T20:46:46.786Z,102690.31
2023-02-28T20:49:16.083Z,102683.06
2023-02-28T20:51:43.518Z,102689.69
2023-02-28T20:54:12.051Z,102685.53
2023-02-28T20:56:39.554Z,102680.66
2023-02-28T20:59:06.950Z,102676.94
2023-02-28T21:01:34.518Z,102677.69
2023-02-28T21:04:05.984Z,102682.41
2023-02-28T21:06:38.172Z,102685.63
2023-02-28T21:09:07.287Z,102681.94
2023-02-28T21:11:37.844Z,102681.44
2023-02-28T21:14:07.327Z,102681.44
2023-02-28T21:16:37.597Z,102680.72
2023-02-28T21:19:05.440Z,102678.94
2023-02-28T21:21:35.985Z,102674.59
2023-02-28T21:24:03.439Z,102681.38
2023-02-28T21:26:31.611Z,102681.16
2023-02-28T21:29:01.664Z,102680.78
2023-02-28T21:31:32.109Z,102684.38
2023-02-28T21:34:01.919Z,102680.81
2023-02-28T21:36:33.012Z,102687.72
2023-02-28T21:39:07.789Z,102679.53
2023-02-28T21:41:35.742Z,102686.81
2023-02-28T21:44:03.322Z,102684.16
2023-02-28T21:46:32.188Z,102679.94
2023-02-28T21:48:59.887Z,102684.41
2023-02-28T21:51:31.010Z,102688.81
2023-02-28T21:53:59.658Z,102688.63
2023-02-28T21:56:30.686Z,102689.69
2023-02-28T21:59:01.155Z,102688.13
2023-02-28T22:01:32.314Z,102691.34
2023-02-28T22:04:00.558Z,102686.75
2023-02-28T22:06:30.366Z,102694.13
2023-02-28T22:09:00.519Z,102696.81
2023-02-28T22:11:30.051Z,102700.59
2023-02-28T22:13:58.963Z,102696.59
2023-02-28T22:16:33.187Z,102693.03
2023-02-28T22:19:07.452Z,102694.59
2023-02-28T22:21:35.617Z,102696.00
2023-02-28T22:24:03.878Z,102700.69
2023-02-28T22:26:33.151Z,102707.09
2023-02-28T22:29:01.138Z,102703.25
2023-02-28T22:31:31.305Z,102707.88
2023-02-28T22:34:01.369Z,102708.78
2023-02-28T22:36:30.204Z,102715.09
2023-02-28T22:39:00.707Z,102715.22
2023-02-28T22:41:28.854Z,102707.81
2023-02-28T22:44:00.783Z,102714.97
2023-02-28T22:46:31.183Z,102701.00
2023-02-28T22:48:59.673Z,102705.78
2023-02-28T22:51:28.434Z,102710.06
2023-02-28T22:53:58.141Z,102713.13
2023-02-28T22:56:27.669Z,102718.41
2023-02-28T22:58:58.103Z,102716.25
2023-02-28T23:01:27.266Z,102715.53
2023-02-28T23:03:55.801Z,102722.66
2023-02-28T23:06:25.313Z,102731.22
2023-02-28T23:08:54.566Z,102728.00
2023-02-28T23:11:24.702Z,102727.31
2023-02-28T23:13:59.275Z,102731.66
2023-02-28T23:16:31.361Z,102735.06
2023-02-28T23:19:00.720Z,102735.50
2023-02-28T23:21:28.930Z,102736.53
2023-02-28T23:23:56.709Z,102740.16
2023-02-28T23:26:24.690Z,102746.13
2023-02-28T23:28:52.123Z,102746.06
2023-02-28T23:31:19.606Z,102747.22
2023-02-28T23:33:48.359Z,102748.53
2023-02-28T23:36:17.740Z,102748.88
2023-02-28T23:38:48.107Z,102751.78
2023-02-28T23:41:15.918Z,102732.97
2023-02-28T23:43:43.746Z,102736.81
2023-02-28T23:46:12.698Z,102738.19
2023-02-28T23:48:40.829Z,102733.53
2023-02-28T23:51:13.594Z,102735.75
2023-02-28T23:53:43.662Z,102733.22
2023-02-28T23:56:14.658Z,102724.75
2023-02-28T23:58:42.796Z,102723.34
